sensor_id;sensor_type;location;lat;lon;timestamp;P1;durP1;ratioP1;P2;durP2;ratioP2
68457;SDS011;65384;52.016;5.428;2023-02-28T00:00:45;8.82;;;3.75;;
68457;SDS011;65384;52.016;5.428;2023-02-28T00:03:11;8.65;;;3.55;;
68457;SDS011;65384;52.016;5.428;2023-02-28T00:05:36;9.15;;;3.75;;
68457;SDS011;65384;52.016;5.428;2023-02-28T00:08:01;12.35;;;3.47;;
68457;SDS011;65384;52.016;5.428;2023-02-28T00:10:28;10.48;;;3.95;;
68457;SDS011;65384;52.016;5.428;2023-02-28T00:12:55;12.57;;;4.60;;
68457;SDS011;65384;52.016;5.428;2023-02-28T00:15:22;8.73;;;3.80;;
68457;SDS011;65384;52.016;5.428;2023-02-28T00:17:48;8.10;;;3.50;;
68457;SDS011;65384;52.016;5.428;2023-02-28T00:20:13;9.30;;;3.10;;
68457;SDS011;65384;52.016;5.428;2023-02-28T00:22:39;8.95;;;3.30;;
68457;SDS011;65384;52.016;5.428;2023-02-28T00:25:07;7.75;;;3.53;;
68457;SDS011;65384;52.016;5.428;2023-02-28T00:27:33;11.95;;;4.07;;
68457;SDS011;65384;52.016;5.428;2023-02-28T00:30:00;13.40;;;4.47;;
68457;SDS011;65384;52.016;5.428;2023-02-28T00:32:25;10.98;;;4.18;;
68457;SDS011;65384;52.016;5.428;2023-02-28T00:34:51;11.95;;;4.50;;
68457;SDS011;65384;52.016;5.428;2023-02-28T00:37:16;12.18;;;4.30;;
68457;SDS011;65384;52.016;5.428;2023-02-28T00:39:42;12.05;;;4.50;;
68457;SDS011;65384;52.016;5.428;2023-02-28T00:42:07;12.80;;;4.97;;
68457;SDS011;65384;52.016;5.428;2023-02-28T00:44:32;19.02;;;6.30;;
68457;SDS011;65384;52.016;5.428;2023-02-28T00:46:58;19.33;;;6.55;;
68457;SDS011;65384;52.016;5.428;2023-02-28T00:49:24;26.20;;;6.70;;
68457;SDS011;65384;52.016;5.428;2023-02-28T00:51:50;18.70;;;5.90;;
68457;SDS011;65384;52.016;5.428;2023-02-28T00:54:16;21.13;;;6.32;;
68457;SDS011;65384;52.016;5.428;2023-02-28T00:56:41;16.83;;;5.63;;
68457;SDS011;65384;52.016;5.428;2023-02-28T00:59:07;18.05;;;6.28;;
68457;SDS011;65384;52.016;5.428;2023-02-28T01:01:32;19.02;;;7.15;;
68457;SDS011;65384;52.016;5.428;2023-02-28T01:03:57;13.43;;;5.43;;
68457;SDS011;65384;52.016;5.428;2023-02-28T01:06:23;20.13;;;6.05;;
68457;SDS011;65384;52.016;5.428;2023-02-28T01:08:48;19.77;;;6.38;;
68457;SDS011;65384;52.016;5.428;2023-02-28T01:11:14;14.00;;;5.63;;
68457;SDS011;65384;52.016;5.428;2023-02-28T01:13:41;15.07;;;5.72;;
68457;SDS011;65384;52.016;5.428;2023-02-28T01:16:07;12.77;;;5.43;;
68457;SDS011;65384;52.016;5.428;2023-02-28T01:18:32;20.58;;;5.72;;
68457;SDS011;65384;52.016;5.428;2023-02-28T01:20:57;13.52;;;5.15;;
68457;SDS011;65384;52.016;5.428;2023-02-28T01:23:23;19.90;;;5.75;;
68457;SDS011;65384;52.016;5.428;2023-02-28T01:25:49;14.30;;;5.00;;
68457;SDS011;65384;52.016;5.428;2023-02-28T01:28:15;14.23;;;5.50;;
68457;SDS011;65384;52.016;5.428;2023-02-28T01:30:40;14.63;;;5.30;;
68457;SDS011;65384;52.016;5.428;2023-02-28T01:33:06;12.52;;;4.85;;
68457;SDS011;65384;52.016;5.428;2023-02-28T01:35:34;11.07;;;4.70;;
68457;SDS011;65384;52.016;5.428;2023-02-28T01:38:00;14.85;;;4.60;;
68457;SDS011;65384;52.016;5.428;2023-02-28T01:40:26;12.85;;;4.80;;
68457;SDS011;65384;52.016;5.428;2023-02-28T01:42:51;12.80;;;4.57;;
68457;SDS011;65384;52.016;5.428;2023-02-28T01:45:22;8.70;;;3.78;;
68457;SDS011;65384;52.016;5.428;2023-02-28T01:47:58;13.55;;;4.13;;
68457;SDS011;65384;52.016;5.428;2023-02-28T01:50:30;9.32;;;3.97;;
68457;SDS011;65384;52.016;5.428;2023-02-28T01:52:59;9.45;;;4.15;;
68457;SDS011;65384;52.016;5.428;2023-02-28T01:55:27;12.88;;;4.18;;
68457;SDS011;65384;52.016;5.428;2023-02-28T01:57:55;10.20;;;3.92;;
68457;SDS011;65384;52.016;5.428;2023-02-28T02:00:23;11.52;;;3.67;;
68457;SDS011;65384;52.016;5.428;2023-02-28T02:02:53;8.93;;;4.05;;
68457;SDS011;65384;52.016;5.428;2023-02-28T02:05:23;9.10;;;4.25;;
68457;SDS011;65384;52.016;5.428;2023-02-28T02:07:57;9.45;;;3.88;;
68457;SDS011;65384;52.016;5.428;2023-02-28T02:10:31;8.70;;;3.53;;
68457;SDS011;65384;52.016;5.428;2023-02-28T02:18:43;8.70;;;3.50;;
68457;SDS011;65384;52.016;5.428;2023-02-28T02:24:03;7.30;;;3.25;;
68457;SDS011;65384;52.016;5.428;2023-02-28T02:30:07;9.55;;;3.22;;
68457;SDS011;65384;52.016;5.428;2023-02-28T02:32:24;7.35;;;3.13;;
68457;SDS011;65384;52.016;5.428;2023-02-28T02:35:27;10.57;;;3.47;;
68457;SDS011;65384;52.016;5.428;2023-02-28T02:42:59;9.55;;;3.58;;
68457;SDS011;65384;52.016;5.428;2023-02-28T02:45:38;8.40;;;3.33;;
68457;SDS011;65384;52.016;5.428;2023-02-28T02:48:07;9.52;;;3.70;;
68457;SDS011;65384;52.016;5.428;2023-02-28T02:50:37;9.50;;;3.67;;
68457;SDS011;65384;52.016;5.428;2023-02-28T02:53:34;10.13;;;3.80;;
68457;SDS011;65384;52.016;5.428;2023-02-28T02:56:01;8.10;;;3.95;;
68457;SDS011;65384;52.016;5.428;2023-02-28T02:58:29;10.88;;;3.70;;
68457;SDS011;65384;52.016;5.428;2023-02-28T03:00:57;7.70;;;3.45;;
68457;SDS011;65384;52.016;5.428;2023-02-28T03:03:25;8.95;;;3.60;;
68457;SDS011;65384;52.016;5.428;2023-02-28T03:05:58;12.15;;;4.10;;
68457;SDS011;65384;52.016;5.428;2023-02-28T03:08:25;9.77;;;4.03;;
68457;SDS011;65384;52.016;5.428;2023-02-28T03:10:52;8.27;;;3.50;;
68457;SDS011;65384;52.016;5.428;2023-02-28T03:23:51;9.82;;;3.47;;
68457;SDS011;65384;52.016;5.428;2023-02-28T03:26:36;12.07;;;4.03;;
68457;SDS011;65384;52.016;5.428;2023-02-28T03:29:47;7.32;;;3.45;;
68457;SDS011;65384;52.016;5.428;2023-02-28T03:34:39;8.52;;;3.75;;
68457;SDS011;65384;52.016;5.428;2023-02-28T03:37:20;10.10;;;3.72;;
68457;SDS011;65384;52.016;5.428;2023-02-28T03:39:49;10.38;;;3.25;;
68457;SDS011;65384;52.016;5.428;2023-02-28T03:42:19;13.13;;;4.20;;
68457;SDS011;65384;52.016;5.428;2023-02-28T03:44:48;8.32;;;3.72;;
68457;SDS011;65384;52.016;5.428;2023-02-28T03:49:52;10.90;;;3.78;;
68457;SDS011;65384;52.016;5.428;2023-02-28T03:52:21;8.13;;;4.03;;
68457;SDS011;65384;52.016;5.428;2023-02-28T03:54:50;8.20;;;3.50;;
68457;SDS011;65384;52.016;5.428;2023-02-28T04:00:25;7.63;;;3.65;;
68457;SDS011;65384;52.016;5.428;2023-02-28T04:02:32;7.32;;;3.60;;
68457;SDS011;65384;52.016;5.428;2023-02-28T04:04:59;9.57;;;3.80;;
68457;SDS011;65384;52.016;5.428;2023-02-28T04:07:28;7.05;;;3.38;;
68457;SDS011;65384;52.016;5.428;2023-02-28T04:09:54;6.68;;;2.92;;
68457;SDS011;65384;52.016;5.428;2023-02-28T04:12:19;6.28;;;3.10;;
68457;SDS011;65384;52.016;5.428;2023-02-28T04:14:46;6.03;;;3.20;;
68457;SDS011;65384;52.016;5.428;2023-02-28T04:17:11;7.47;;;3.30;;
68457;SDS011;65384;52.016;5.428;2023-02-28T04:19:36;10.25;;;3.40;;
68457;SDS011;65384;52.016;5.428;2023-02-28T04:22:02;7.95;;;3.00;;
68457;SDS011;65384;52.016;5.428;2023-02-28T04:24:27;7.22;;;3.00;;
68457;SDS011;65384;52.016;5.428;2023-02-28T04:26:54;7.00;;;3.10;;
68457;SDS011;65384;52.016;5.428;2023-02-28T04:29:22;5.93;;;2.75;;
68457;SDS011;65384;52.016;5.428;2023-02-28T04:31:48;6.25;;;2.63;;
68457;SDS011;65384;52.016;5.428;2023-02-28T04:34:14;10.05;;;3.33;;
68457;SDS011;65384;52.016;5.428;2023-02-28T04:36:40;8.48;;;3.70;;
68457;SDS011;65384;52.016;5.428;2023-02-28T04:39:05;8.60;;;3.55;;
68457;SDS011;65384;52.016;5.428;2023-02-28T04:41:31;8.07;;;3.28;;
68457;SDS011;65384;52.016;5.428;2023-02-28T04:43:56;5.75;;;3.05;;
68457;SDS011;65384;52.016;5.428;2023-02-28T04:46:22;5.43;;;2.88;;
68457;SDS011;65384;52.016;5.428;2023-02-28T04:48:47;6.00;;;2.72;;
68457;SDS011;65384;52.016;5.428;2023-02-28T04:51:13;6.90;;;3.13;;
68457;SDS011;65384;52.016;5.428;2023-02-28T04:53:40;4.65;;;2.72;;
68457;SDS011;65384;52.016;5.428;2023-02-28T04:56:07;5.57;;;2.75;;
68457;SDS011;65384;52.016;5.428;2023-02-28T04:58:33;5.50;;;3.10;;
68457;SDS011;65384;52.016;5.428;2023-02-28T05:01:07;6.50;;;2.72;;
68457;SDS011;65384;52.016;5.428;2023-02-28T05:03:45;6.30;;;2.95;;
68457;SDS011;65384;52.016;5.428;2023-02-28T05:06:11;6.22;;;2.70;;
68457;SDS011;65384;52.016;5.428;2023-02-28T05:08:37;5.65;;;2.95;;
68457;SDS011;65384;52.016;5.428;2023-02-28T05:11:02;6.45;;;2.70;;
68457;SDS011;65384;52.016;5.428;2023-02-28T05:13:28;6.03;;;2.88;;
68457;SDS011;65384;52.016;5.428;2023-02-28T05:15:54;6.50;;;3.00;;
68457;SDS011;65384;52.016;5.428;2023-02-28T05:18:20;7.05;;;3.15;;
68457;SDS011;65384;52.016;5.428;2023-02-28T05:20:45;6.60;;;2.80;;
68457;SDS011;65384;52.016;5.428;2023-02-28T05:23:11;6.03;;;2.97;;
68457;SDS011;65384;52.016;5.428;2023-02-28T05:25:37;7.25;;;3.00;;
68457;SDS011;65384;52.016;5.428;2023-02-28T05:28:03;6.05;;;3.00;;
68457;SDS011;65384;52.016;5.428;2023-02-28T05:30:29;8.20;;;3.35;;
68457;SDS011;65384;52.016;5.428;2023-02-28T05:32:55;7.88;;;2.95;;
68457;SDS011;65384;52.016;5.428;2023-02-28T05:35:20;6.78;;;2.72;;
68457;SDS011;65384;52.016;5.428;2023-02-28T05:37:45;7.57;;;3.35;;
68457;SDS011;65384;52.016;5.428;2023-02-28T05:40:11;11.88;;;3.50;;
68457;SDS011;65384;52.016;5.428;2023-02-28T05:42:37;12.43;;;3.40;;
68457;SDS011;65384;52.016;5.428;2023-02-28T05:45:03;9.43;;;3.75;;
68457;SDS011;65384;52.016;5.428;2023-02-28T05:47:29;9.93;;;3.90;;
68457;SDS011;65384;52.016;5.428;2023-02-28T05:49:54;6.75;;;3.30;;
68457;SDS011;65384;52.016;5.428;2023-02-28T05:52:20;11.65;;;3.13;;
68457;SDS011;65384;52.016;5.428;2023-02-28T05:54:46;8.55;;;3.95;;
68457;SDS011;65384;52.016;5.428;2023-02-28T05:57:11;7.25;;;3.70;;
68457;SDS011;65384;52.016;5.428;2023-02-28T05:59:36;9.85;;;3.45;;
68457;SDS011;65384;52.016;5.428;2023-02-28T06:02:04;7.13;;;3.40;;
68457;SDS011;65384;52.016;5.428;2023-02-28T06:04:37;10.52;;;3.35;;
68457;SDS011;65384;52.016;5.428;2023-02-28T06:07:02;5.70;;;2.95;;
68457;SDS011;65384;52.016;5.428;2023-02-28T06:09:30;8.45;;;2.95;;
68457;SDS011;65384;52.016;5.428;2023-02-28T06:11:59;6.40;;;3.03;;
68457;SDS011;65384;52.016;5.428;2023-02-28T06:14:25;8.77;;;3.60;;
68457;SDS011;65384;52.016;5.428;2023-02-28T06:16:51;6.78;;;3.10;;
68457;SDS011;65384;52.016;5.428;2023-02-28T06:19:16;8.77;;;3.33;;
68457;SDS011;65384;52.016;5.428;2023-02-28T06:21:42;5.90;;;3.13;;
68457;SDS011;65384;52.016;5.428;2023-02-28T06:24:08;7.55;;;3.28;;
68457;SDS011;65384;52.016;5.428;2023-02-28T06:26:33;7.47;;;3.33;;
68457;SDS011;65384;52.016;5.428;2023-02-28T06:28:59;6.05;;;3.10;;
68457;SDS011;65384;52.016;5.428;2023-02-28T06:31:25;8.10;;;3.70;;
68457;SDS011;65384;52.016;5.428;2023-02-28T06:33:51;5.78;;;3.13;;
68457;SDS011;65384;52.016;5.428;2023-02-28T06:36:16;9.38;;;3.42;;
68457;SDS011;65384;52.016;5.428;2023-02-28T06:38:42;10.93;;;3.53;;
68457;SDS011;65384;52.016;5.428;2023-02-28T06:41:08;6.90;;;3.40;;
68457;SDS011;65384;52.016;5.428;2023-02-28T06:43:36;7.85;;;3.55;;
68457;SDS011;65384;52.016;5.428;2023-02-28T06:46:04;6.60;;;3.30;;
68457;SDS011;65384;52.016;5.428;2023-02-28T06:48:30;9.95;;;3.83;;
68457;SDS011;65384;52.016;5.428;2023-02-28T06:53:49;7.40;;;3.28;;
68457;SDS011;65384;52.016;5.428;2023-02-28T06:56:15;9.18;;;3.42;;
68457;SDS011;65384;52.016;5.428;2023-02-28T06:58:42;6.82;;;3.22;;
68457;SDS011;65384;52.016;5.428;2023-02-28T07:01:14;8.98;;;3.50;;
68457;SDS011;65384;52.016;5.428;2023-02-28T07:03:39;8.30;;;3.40;;
68457;SDS011;65384;52.016;5.428;2023-02-28T07:06:05;5.85;;;3.15;;
68457;SDS011;65384;52.016;5.428;2023-02-28T07:08:31;6.80;;;3.35;;
68457;SDS011;65384;52.016;5.428;2023-02-28T07:10:57;7.55;;;3.50;;
68457;SDS011;65384;52.016;5.428;2023-02-28T07:13:23;6.03;;;3.40;;
68457;SDS011;65384;52.016;5.428;2023-02-28T07:15:59;7.50;;;3.50;;
68457;SDS011;65384;52.016;5.428;2023-02-28T07:18:26;7.13;;;3.35;;
68457;SDS011;65384;52.016;5.428;2023-02-28T07:20:51;8.73;;;3.20;;
68457;SDS011;65384;52.016;5.428;2023-02-28T07:23:17;6.93;;;3.47;;
68457;SDS011;65384;52.016;5.428;2023-02-28T07:25:43;8.30;;;3.38;;
68457;SDS011;65384;52.016;5.428;2023-02-28T07:28:08;10.00;;;3.80;;
68457;SDS011;65384;52.016;5.428;2023-02-28T07:30:34;6.97;;;3.45;;
68457;SDS011;65384;52.016;5.428;2023-02-28T07:32:59;7.90;;;3.85;;
68457;SDS011;65384;52.016;5.428;2023-02-28T07:35:24;9.38;;;3.92;;
68457;SDS011;65384;52.016;5.428;2023-02-28T07:37:50;8.80;;;3.92;;
68457;SDS011;65384;52.016;5.428;2023-02-28T07:40:15;8.00;;;3.65;;
68457;SDS011;65384;52.016;5.428;2023-02-28T07:42:42;11.07;;;4.00;;
68457;SDS011;65384;52.016;5.428;2023-02-28T07:45:08;8.73;;;3.65;;
68457;SDS011;65384;52.016;5.428;2023-02-28T07:47:36;7.00;;;3.67;;
68457;SDS011;65384;52.016;5.428;2023-02-28T07:50:06;7.05;;;3.40;;
68457;SDS011;65384;52.016;5.428;2023-02-28T07:52:32;8.75;;;3.95;;
68457;SDS011;65384;52.016;5.428;2023-02-28T07:54:57;7.85;;;3.47;;
68457;SDS011;65384;52.016;5.428;2023-02-28T07:57:23;6.30;;;3.40;;
68457;SDS011;65384;52.016;5.428;2023-02-28T07:59:48;8.05;;;3.67;;
68457;SDS011;65384;52.016;5.428;2023-02-28T08:02:14;7.10;;;3.40;;
68457;SDS011;65384;52.016;5.428;2023-02-28T08:04:41;6.90;;;3.20;;
68457;SDS011;65384;52.016;5.428;2023-02-28T08:07:06;6.93;;;3.40;;
68457;SDS011;65384;52.016;5.428;2023-02-28T08:09:32;7.38;;;2.72;;
68457;SDS011;65384;52.016;5.428;2023-02-28T08:11:57;6.22;;;3.28;;
68457;SDS011;65384;52.016;5.428;2023-02-28T08:14:23;8.85;;;3.17;;
68457;SDS011;65384;52.016;5.428;2023-02-28T08:16:48;6.45;;;2.97;;
68457;SDS011;65384;52.016;5.428;2023-02-28T08:19:13;6.95;;;2.67;;
68457;SDS011;65384;52.016;5.428;2023-02-28T08:21:38;5.72;;;2.70;;
68457;SDS011;65384;52.016;5.428;2023-02-28T08:24:04;6.68;;;3.03;;
68457;SDS011;65384;52.016;5.428;2023-02-28T08:26:30;7.90;;;2.70;;
68457;SDS011;65384;52.016;5.428;2023-02-28T08:28:56;5.45;;;2.90;;
68457;SDS011;65384;52.016;5.428;2023-02-28T08:31:21;5.25;;;2.72;;
68457;SDS011;65384;52.016;5.428;2023-02-28T08:33:47;4.93;;;2.72;;
68457;SDS011;65384;52.016;5.428;2023-02-28T08:36:15;6.00;;;2.90;;
68457;SDS011;65384;52.016;5.428;2023-02-28T08:38:41;6.05;;;2.80;;
68457;SDS011;65384;52.016;5.428;2023-02-28T08:41:07;4.80;;;2.47;;
68457;SDS011;65384;52.016;5.428;2023-02-28T08:43:34;4.85;;;2.50;;
68457;SDS011;65384;52.016;5.428;2023-02-28T08:46:00;3.92;;;2.45;;
68457;SDS011;65384;52.016;5.428;2023-02-28T08:48:26;6.45;;;2.30;;
68457;SDS011;65384;52.016;5.428;2023-02-28T08:53:22;5.38;;;2.22;;
68457;SDS011;65384;52.016;5.428;2023-02-28T08:55:54;4.55;;;2.30;;
68457;SDS011;65384;52.016;5.428;2023-02-28T08:58:21;3.15;;;2.00;;
68457;SDS011;65384;52.016;5.428;2023-02-28T09:00:46;4.60;;;2.38;;
68457;SDS011;65384;52.016;5.428;2023-02-28T09:03:11;5.50;;;2.45;;
68457;SDS011;65384;52.016;5.428;2023-02-28T09:05:37;6.43;;;2.45;;
68457;SDS011;65384;52.016;5.428;2023-02-28T09:08:02;5.47;;;2.50;;
68457;SDS011;65384;52.016;5.428;2023-02-28T09:10:28;5.32;;;2.00;;
68457;SDS011;65384;52.016;5.428;2023-02-28T09:12:53;4.38;;;1.50;;
68457;SDS011;65384;52.016;5.428;2023-02-28T09:15:18;3.83;;;1.40;;
68457;SDS011;65384;52.016;5.428;2023-02-28T09:17:44;2.95;;;1.73;;
68457;SDS011;65384;52.016;5.428;2023-02-28T09:20:09;3.80;;;2.25;;
68457;SDS011;65384;52.016;5.428;2023-02-28T09:22:35;6.93;;;2.15;;
68457;SDS011;65384;52.016;5.428;2023-02-28T09:25:00;4.15;;;2.00;;
68457;SDS011;65384;52.016;5.428;2023-02-28T09:27:26;3.13;;;1.70;;
68457;SDS011;65384;52.016;5.428;2023-02-28T09:29:51;3.45;;;1.83;;
68457;SDS011;65384;52.016;5.428;2023-02-28T09:32:16;3.80;;;1.80;;
68457;SDS011;65384;52.016;5.428;2023-02-28T09:34:42;3.58;;;1.88;;
68457;SDS011;65384;52.016;5.428;2023-02-28T09:37:08;3.75;;;1.88;;
68457;SDS011;65384;52.016;5.428;2023-02-28T09:39:33;5.93;;;1.95;;
68457;SDS011;65384;52.016;5.428;2023-02-28T09:41:59;2.53;;;1.65;;
68457;SDS011;65384;52.016;5.428;2023-02-28T09:44:30;3.67;;;1.98;;
68457;SDS011;65384;52.016;5.428;2023-02-28T09:46:59;2.92;;;1.80;;
68457;SDS011;65384;52.016;5.428;2023-02-28T09:49:33;3.85;;;1.73;;
68457;SDS011;65384;52.016;5.428;2023-02-28T09:52:14;2.50;;;1.63;;
68457;SDS011;65384;52.016;5.428;2023-02-28T09:54:43;12.05;;;1.50;;
68457;SDS011;65384;52.016;5.428;2023-02-28T09:57:54;1.63;;;1.13;;
68457;SDS011;65384;52.016;5.428;2023-02-28T10:00:01;2.55;;;1.30;;
68457;SDS011;65384;52.016;5.428;2023-02-28T10:05:13;2.03;;;1.50;;
68457;SDS011;65384;52.016;5.428;2023-02-28T10:13:06;3.08;;;1.50;;
68457;SDS011;65384;52.016;5.428;2023-02-28T10:15:39;3.53;;;1.70;;
68457;SDS011;65384;52.016;5.428;2023-02-28T10:18:12;2.70;;;1.70;;
68457;SDS011;65384;52.016;5.428;2023-02-28T10:20:40;2.42;;;1.63;;
68457;SDS011;65384;52.016;5.428;2023-02-28T10:23:26;2.72;;;1.60;;
68457;SDS011;65384;52.016;5.428;2023-02-28T10:26:16;3.38;;;1.88;;
68457;SDS011;65384;52.016;5.428;2023-02-28T10:28:41;3.28;;;1.63;;
68457;SDS011;65384;52.016;5.428;2023-02-28T10:31:08;5.40;;;1.70;;
68457;SDS011;65384;52.016;5.428;2023-02-28T10:33:36;3.15;;;1.75;;
68457;SDS011;65384;52.016;5.428;2023-02-28T10:36:02;3.88;;;1.60;;
68457;SDS011;65384;52.016;5.428;2023-02-28T10:38:33;3.70;;;1.60;;
68457;SDS011;65384;52.016;5.428;2023-02-28T10:41:42;4.27;;;1.90;;
68457;SDS011;65384;52.016;5.428;2023-02-28T10:43:53;4.65;;;1.98;;
68457;SDS011;65384;52.016;5.428;2023-02-28T10:46:39;4.32;;;1.98;;
68457;SDS011;65384;52.016;5.428;2023-02-28T10:49:05;2.80;;;2.00;;
68457;SDS011;65384;52.016;5.428;2023-02-28T10:51:36;3.20;;;1.70;;
68457;SDS011;65384;52.016;5.428;2023-02-28T10:54:03;3.20;;;1.80;;
68457;SDS011;65384;52.016;5.428;2023-02-28T10:56:29;3.10;;;1.60;;
68457;SDS011;65384;52.016;5.428;2023-02-28T10:59:00;3.75;;;1.85;;
68457;SDS011;65384;52.016;5.428;2023-02-28T11:01:44;2.47;;;1.60;;
68457;SDS011;65384;52.016;5.428;2023-02-28T11:04:31;2.75;;;1.85;;
68457;SDS011;65384;52.016;5.428;2023-02-28T11:12:05;3.67;;;1.80;;
68457;SDS011;65384;52.016;5.428;2023-02-28T11:14:35;3.55;;;2.10;;
68457;SDS011;65384;52.016;5.428;2023-02-28T11:17:13;2.53;;;1.70;;
68457;SDS011;65384;52.016;5.428;2023-02-28T11:19:44;2.80;;;1.80;;
68457;SDS011;65384;52.016;5.428;2023-02-28T11:22:11;3.35;;;1.80;;
68457;SDS011;65384;52.016;5.428;2023-02-28T11:24:44;2.50;;;1.80;;
68457;SDS011;65384;52.016;5.428;2023-02-28T11:29:57;2.55;;;1.90;;
68457;SDS011;65384;52.016;5.428;2023-02-28T11:32:27;5.53;;;2.00;;
68457;SDS011;65384;52.016;5.428;2023-02-28T11:35:16;4.15;;;2.10;;
68457;SDS011;65384;52.016;5.428;2023-02-28T11:37:47;3.20;;;1.80;;
68457;SDS011;65384;52.016;5.428;2023-02-28T11:40:16;3.05;;;1.95;;
68457;SDS011;65384;52.016;5.428;2023-02-28T11:43:21;4.85;;;2.13;;
68457;SDS011;65384;52.016;5.428;2023-02-28T11:46:13;2.92;;;1.80;;
68457;SDS011;65384;52.016;5.428;2023-02-28T11:51:49;2.50;;;1.77;;
68457;SDS011;65384;52.016;5.428;2023-02-28T12:02:48;3.08;;;1.90;;
68457;SDS011;65384;52.016;5.428;2023-02-28T12:05:34;3.50;;;1.90;;
68457;SDS011;65384;52.016;5.428;2023-02-28T12:10:39;2.90;;;1.80;;
68457;SDS011;65384;52.016;5.428;2023-02-28T12:13:23;3.30;;;1.90;;
68457;SDS011;65384;52.016;5.428;2023-02-28T12:24:51;3.05;;;1.80;;
68457;SDS011;65384;52.016;5.428;2023-02-28T12:27:28;2.70;;;1.80;;
68457;SDS011;65384;52.016;5.428;2023-02-28T12:29:57;4.45;;;1.60;;
68457;SDS011;65384;52.016;5.428;2023-02-28T12:32:36;3.72;;;1.77;;
68457;SDS011;65384;52.016;5.428;2023-02-28T12:35:06;2.40;;;1.90;;
68457;SDS011;65384;52.016;5.428;2023-02-28T12:37:47;3.75;;;1.80;;
68457;SDS011;65384;52.016;5.428;2023-02-28T12:40:22;2.70;;;1.70;;
68457;SDS011;65384;52.016;5.428;2023-02-28T12:42:50;4.32;;;1.70;;
68457;SDS011;65384;52.016;5.428;2023-02-28T12:45:18;2.92;;;1.83;;
68457;SDS011;65384;52.016;5.428;2023-02-28T12:47:45;2.38;;;1.52;;
68457;SDS011;65384;52.016;5.428;2023-02-28T12:50:13;2.47;;;1.80;;
68457;SDS011;65384;52.016;5.428;2023-02-28T13:00:29;4.07;;;2.00;;
68457;SDS011;65384;52.016;5.428;2023-02-28T13:03:20;3.65;;;2.10;;
68457;SDS011;65384;52.016;5.428;2023-02-28T13:06:10;2.40;;;1.90;;
68457;SDS011;65384;52.016;5.428;2023-02-28T13:11:33;2.78;;;1.85;;
68457;SDS011;65384;52.016;5.428;2023-02-28T13:14:03;3.50;;;2.10;;
68457;SDS011;65384;52.016;5.428;2023-02-28T13:19:17;2.75;;;1.98;;
68457;SDS011;65384;52.016;5.428;2023-02-28T13:21:44;3.25;;;2.00;;
68457;SDS011;65384;52.016;5.428;2023-02-28T13:24:09;3.22;;;2.03;;
68457;SDS011;65384;52.016;5.428;2023-02-28T13:29:21;3.77;;;2.20;;
68457;SDS011;65384;52.016;5.428;2023-02-28T13:34:31;3.72;;;2.20;;
68457;SDS011;65384;52.016;5.428;2023-02-28T13:39:46;3.10;;;2.10;;
68457;SDS011;65384;52.016;5.428;2023-02-28T13:47:40;3.60;;;2.13;;
68457;SDS011;65384;52.016;5.428;2023-02-28T13:50:15;4.25;;;2.22;;
68457;SDS011;65384;52.016;5.428;2023-02-28T13:52:55;3.60;;;2.30;;
68457;SDS011;65384;52.016;5.428;2023-02-28T13:55:28;3.67;;;2.20;;
68457;SDS011;65384;52.016;5.428;2023-02-28T14:06:07;3.50;;;2.25;;
68457;SDS011;65384;52.016;5.428;2023-02-28T14:09:03;3.45;;;2.15;;
68457;SDS011;65384;52.016;5.428;2023-02-28T14:11:40;5.70;;;2.53;;
68457;SDS011;65384;52.016;5.428;2023-02-28T14:14:08;3.75;;;2.20;;
68457;SDS011;65384;52.016;5.428;2023-02-28T14:21:39;3.65;;;2.28;;
68457;SDS011;65384;52.016;5.428;2023-02-28T14:26:57;3.17;;;1.85;;
68457;SDS011;65384;52.016;5.428;2023-02-28T14:38:00;4.20;;;2.08;;
68457;SDS011;65384;52.016;5.428;2023-02-28T14:40:35;3.45;;;2.00;;
68457;SDS011;65384;52.016;5.428;2023-02-28T14:43:01;3.35;;;1.88;;
68457;SDS011;65384;52.016;5.428;2023-02-28T14:45:29;6.57;;;2.17;;
68457;SDS011;65384;52.016;5.428;2023-02-28T14:47:56;3.97;;;2.00;;
68457;SDS011;65384;52.016;5.428;2023-02-28T14:50:23;2.80;;;1.80;;
68457;SDS011;65384;52.016;5.428;2023-02-28T14:52:53;3.47;;;2.00;;
68457;SDS011;65384;52.016;5.428;2023-02-28T14:55:20;5.13;;;2.08;;
68457;SDS011;65384;52.016;5.428;2023-02-28T15:02:52;3.78;;;2.08;;
68457;SDS011;65384;52.016;5.428;2023-02-28T15:07:44;4.15;;;2.00;;
68457;SDS011;65384;52.016;5.428;2023-02-28T15:10:12;5.85;;;2.40;;
68457;SDS011;65384;52.016;5.428;2023-02-28T15:12:49;5.40;;;2.50;;
68457;SDS011;65384;52.016;5.428;2023-02-28T15:15:17;7.43;;;2.40;;
68457;SDS011;65384;52.016;5.428;2023-02-28T15:17:48;3.83;;;2.15;;
68457;SDS011;65384;52.016;5.428;2023-02-28T15:20:15;4.40;;;2.40;;
68457;SDS011;65384;52.016;5.428;2023-02-28T15:22:41;5.22;;;2.45;;
68457;SDS011;65384;52.016;5.428;2023-02-28T15:25:06;3.28;;;1.73;;
68457;SDS011;65384;52.016;5.428;2023-02-28T15:27:34;3.63;;;1.83;;
68457;SDS011;65384;52.016;5.428;2023-02-28T15:30:07;3.45;;;1.80;;
68457;SDS011;65384;52.016;5.428;2023-02-28T15:32:37;4.35;;;1.92;;
68457;SDS011;65384;52.016;5.428;2023-02-28T15:37:53;5.30;;;1.98;;
68457;SDS011;65384;52.016;5.428;2023-02-28T15:40:30;3.33;;;2.08;;
68457;SDS011;65384;52.016;5.428;2023-02-28T15:43:16;3.88;;;2.00;;
68457;SDS011;65384;52.016;5.428;2023-02-28T15:45:46;6.13;;;2.10;;
68457;SDS011;65384;52.016;5.428;2023-02-28T15:48:27;6.43;;;2.10;;
68457;SDS011;65384;52.016;5.428;2023-02-28T15:50:55;4.47;;;2.15;;
68457;SDS011;65384;52.016;5.428;2023-02-28T15:53:26;4.80;;;2.30;;
68457;SDS011;65384;52.016;5.428;2023-02-28T15:55:57;4.05;;;2.20;;
68457;SDS011;65384;52.016;5.428;2023-02-28T15:58:28;3.90;;;2.03;;
68457;SDS011;65384;52.016;5.428;2023-02-28T16:01:16;6.45;;;3.65;;
68457;SDS011;65384;52.016;5.428;2023-02-28T16:03:41;5.57;;;2.50;;
68457;SDS011;65384;52.016;5.428;2023-02-28T16:06:20;4.80;;;2.38;;
68457;SDS011;65384;52.016;5.428;2023-02-28T16:08:47;6.40;;;2.05;;
68457;SDS011;65384;52.016;5.428;2023-02-28T16:11:13;4.40;;;2.10;;
68457;SDS011;65384;52.016;5.428;2023-02-28T16:13:39;4.38;;;2.40;;
68457;SDS011;65384;52.016;5.428;2023-02-28T16:16:05;4.85;;;2.10;;
68457;SDS011;65384;52.016;5.428;2023-02-28T16:18:30;3.60;;;2.40;;
68457;SDS011;65384;52.016;5.428;2023-02-28T16:20:55;6.65;;;2.38;;
68457;SDS011;65384;52.016;5.428;2023-02-28T16:23:21;5.43;;;2.63;;
68457;SDS011;65384;52.016;5.428;2023-02-28T16:25:46;5.90;;;2.00;;
68457;SDS011;65384;52.016;5.428;2023-02-28T16:28:22;4.25;;;2.30;;
68457;SDS011;65384;52.016;5.428;2023-02-28T16:30:53;3.97;;;2.28;;
68457;SDS011;65384;52.016;5.428;2023-02-28T16:33:18;4.25;;;2.10;;
68457;SDS011;65384;52.016;5.428;2023-02-28T16:35:44;4.65;;;2.10;;
68457;SDS011;65384;52.016;5.428;2023-02-28T16:38:09;3.58;;;2.10;;
68457;SDS011;65384;52.016;5.428;2023-02-28T16:40:35;5.13;;;2.60;;
68457;SDS011;65384;52.016;5.428;2023-02-28T16:43:00;4.60;;;2.50;;
68457;SDS011;65384;52.016;5.428;2023-02-28T16:45:30;7.78;;;3.22;;
68457;SDS011;65384;52.016;5.428;2023-02-28T16:47:55;7.13;;;2.20;;
68457;SDS011;65384;52.016;5.428;2023-02-28T16:50:25;3.60;;;2.00;;
68457;SDS011;65384;52.016;5.428;2023-02-28T16:52:52;3.72;;;2.20;;
68457;SDS011;65384;52.016;5.428;2023-02-28T16:55:19;4.75;;;2.35;;
68457;SDS011;65384;52.016;5.428;2023-02-28T16:57:45;3.88;;;2.13;;
68457;SDS011;65384;52.016;5.428;2023-02-28T17:00:15;6.00;;;2.60;;
68457;SDS011;65384;52.016;5.428;2023-02-28T17:02:40;5.85;;;2.42;;
68457;SDS011;65384;52.016;5.428;2023-02-28T17:05:06;4.18;;;2.35;;
68457;SDS011;65384;52.016;5.428;2023-02-28T17:07:31;7.03;;;2.28;;
68457;SDS011;65384;52.016;5.428;2023-02-28T17:09:57;4.82;;;2.25;;
68457;SDS011;65384;52.016;5.428;2023-02-28T17:12:23;4.93;;;2.40;;
68457;SDS011;65384;52.016;5.428;2023-02-28T17:14:48;3.35;;;2.13;;
68457;SDS011;65384;52.016;5.428;2023-02-28T17:17:20;5.10;;;2.30;;